createdAt,value
2022-10-23T00:01:16.947Z,13.36
2022-10-23T00:04:09.146Z,13.36
2022-10-23T00:06:56.506Z,13.34
2022-10-23T00:09:44.266Z,13.30
2022-10-23T00:12:31.720Z,13.22
2022-10-23T00:15:22.207Z,13.19
2022-10-23T00:18:09.498Z,13.16
2022-10-23T00:20:57.360Z,13.13
2022-10-23T00:23:45.683Z,13.12
2022-10-23T00:26:33.109Z,13.09
2022-10-23T00:29:20.834Z,13.06
2022-10-23T00:32:08.245Z,13.05
2022-10-23T00:34:55.535Z,12.99
2022-10-23T00:37:43.158Z,12.95
2022-10-23T00:40:30.685Z,12.95
2022-10-23T00:43:21.044Z,12.94
2022-10-23T00:46:08.386Z,12.93
2022-10-23T00:48:56.508Z,12.89
2022-10-23T00:51:47.935Z,12.89
2022-10-23T00:54:39.194Z,12.90
2022-10-23T00:57:26.497Z,12.93
2022-10-23T01:00:17.497Z,12.88
2022-10-23T01:03:04.869Z,12.82
2022-10-23T01:05:55.134Z,12.76
2022-10-23T01:09:00.073Z,12.75
2022-10-23T01:11:55.711Z,12.73
2022-10-23T01:15:01.242Z,12.76
2022-10-23T01:17:55.556Z,12.73
2022-10-23T01:21:05.439Z,12.68
2022-10-23T01:24:20.330Z,12.62
2022-10-23T01:27:31.909Z,12.48
2022-10-23T01:30:19.290Z,12.36
2022-10-23T01:33:21.698Z,12.35
2022-10-23T01:36:13.660Z,12.29
2022-10-23T01:39:08.895Z,12.25
2022-10-23T01:42:03.964Z,12.20
2022-10-23T01:45:02.304Z,12.25
2022-10-23T01:47:51.449Z,12.30
2022-10-23T01:50:41.180Z,12.25
2022-10-23T01:53:33.793Z,12.26
2022-10-23T01:56:26.880Z,12.27
2022-10-23T01:59:21.368Z,12.27
2022-10-23T02:02:12.250Z,12.25
2022-10-23T02:05:04.893Z,12.24
2022-10-23T02:07:54.505Z,12.22
2022-10-23T02:10:44.318Z,12.23
2022-10-23T02:13:59.388Z,12.23
2022-10-23T02:16:51.351Z,12.17
2022-10-23T02:19:45.694Z,12.15
2022-10-23T02:22:41.234Z,12.10
2022-10-23T02:25:39.105Z,12.08
2022-10-23T02:28:38.634Z,12.05
2022-10-23T02:31:26.070Z,12.01
2022-10-23T02:34:13.381Z,12.03
2022-10-23T02:37:00.859Z,12.02
2022-10-23T02:39:49.202Z,11.97
2022-10-23T02:42:46.902Z,11.94
2022-10-23T02:45:54.368Z,11.88
2022-10-23T02:48:53.403Z,11.86
2022-10-23T02:51:56.534Z,11.82
2022-10-23T02:55:09.598Z,11.74
2022-10-23T02:58:01.547Z,11.68
2022-10-23T03:00:50.909Z,11.63
2022-10-23T03:03:51.066Z,11.55
2022-10-23T03:06:39.608Z,11.49
2022-10-23T03:09:27.460Z,11.46
2022-10-23T03:12:14.737Z,11.40
2022-10-23T03:15:02.207Z,11.21
2022-10-23T03:17:49.564Z,11.07
2022-10-23T03:20:36.922Z,10.95
2022-10-23T03:23:24.247Z,10.93
2022-10-23T03:26:12.306Z,10.86
2022-10-23T03:28:59.592Z,10.80
2022-10-23T03:31:46.919Z,10.69
2022-10-23T03:34:34.826Z,10.61
2022-10-23T03:37:22.359Z,10.57
2022-10-23T03:40:10.222Z,10.71
2022-10-23T03:42:58.011Z,10.72
2022-10-23T03:45:45.613Z,10.74
2022-10-23T03:48:33.076Z,10.79
2022-10-23T03:51:20.394Z,10.85
2022-10-23T03:54:08.471Z,10.86
2022-10-23T03:56:57.576Z,10.89
2022-10-23T03:59:45.217Z,10.91
2022-10-23T04:02:33.014Z,10.88
2022-10-23T04:05:20.362Z,10.81
2022-10-23T04:08:08.036Z,10.83
2022-10-23T04:10:55.502Z,10.78
2022-10-23T04:13:42.828Z,10.80
2022-10-23T04:16:30.328Z,10.77
2022-10-23T04:19:17.979Z,10.71
2022-10-23T04:22:05.243Z,10.62
2022-10-23T04:24:52.694Z,10.65
2022-10-23T04:27:40.121Z,10.65
2022-10-23T04:30:27.608Z,10.63
2022-10-23T04:33:15.202Z,10.60
2022-10-23T04:36:02.659Z,10.61
2022-10-23T04:38:50.004Z,10.56
2022-10-23T04:41:39.264Z,10.53
2022-10-23T04:44:26.647Z,10.54
2022-10-23T04:47:13.989Z,10.56
2022-10-23T04:50:01.441Z,10.59
2022-10-23T04:52:49.048Z,10.63
2022-10-23T04:55:36.753Z,10.60
2022-10-23T04:58:25.388Z,10.62
2022-10-23T05:01:13.094Z,10.64
2022-10-23T05:04:00.694Z,10.61
2022-10-23T05:06:48.212Z,10.58
2022-10-23T05:09:36.027Z,10.52
2022-10-23T05:12:25.587Z,10.43
2022-10-23T05:15:13.387Z,10.45
2022-10-23T05:18:10.889Z,10.42
2022-10-23T05:21:22.530Z,10.39
2022-10-23T05:24:11.605Z,10.43
2022-10-23T05:26:58.926Z,10.49
2022-10-23T05:29:46.428Z,10.43
2022-10-23T05:32:34.529Z,10.42
2022-10-23T05:35:24.367Z,10.45
2022-10-23T05:38:13.155Z,10.46
2022-10-23T05:41:00.885Z,10.43
2022-10-23T05:43:48.457Z,10.44
2022-10-23T05:46:42.332Z,10.39
2022-10-23T05:49:29.620Z,10.34
2022-10-23T05:52:19.012Z,10.31
2022-10-23T05:55:06.825Z,10.30
2022-10-23T05:57:54.253Z,10.22
2022-10-23T06:00:41.683Z,10.21
2022-10-23T06:03:29.016Z,10.19
2022-10-23T06:06:16.341Z,10.18
2022-10-23T06:09:04.437Z,10.15
2022-10-23T06:11:51.747Z,10.11
2022-10-23T06:14:39.086Z,10.11
2022-10-23T06:17:27.721Z,10.06
2022-10-23T06:20:15.081Z,10.10
2022-10-23T06:23:02.604Z,10.12
2022-10-23T06:25:57.070Z,10.07
2022-10-23T06:28:44.841Z,10.11
2022-10-23T06:31:34.725Z,10.13
2022-10-23T06:34:22.336Z,10.11
2022-10-23T06:37:10.097Z,10.11
2022-10-23T06:39:57.949Z,10.11
2022-10-23T06:42:45.813Z,10.15
2022-10-23T06:45:36.472Z,10.18
2022-10-23T06:48:23.822Z,10.21
2022-10-23T06:51:13.354Z,10.25
2022-10-23T06:54:00.688Z,10.28
2022-10-23T06:56:47.997Z,10.28
2022-10-23T06:59:35.282Z,10.27
2022-10-23T07:02:22.806Z,10.24
2022-10-23T07:05:13.474Z,10.28
2022-10-23T07:08:01.274Z,10.32
2022-10-23T07:10:48.846Z,10.39
2022-10-23T07:13:37.269Z,10.36
2022-10-23T07:16:24.937Z,10.40
2022-10-23T07:19:12.299Z,10.35
2022-10-23T07:21:59.760Z,10.34
2022-10-23T07:24:47.456Z,10.29
2022-10-23T07:27:37.765Z,10.41
2022-10-23T07:30:25.168Z,10.36
2022-10-23T07:33:12.612Z,10.35
2022-10-23T07:36:00.356Z,10.46
2022-10-23T07:38:47.673Z,10.44
2022-10-23T07:41:35.021Z,10.55
2022-10-23T07:44:24.407Z,10.59
2022-10-23T07:47:14.267Z,10.68
2022-10-23T07:50:01.497Z,10.79
2022-10-23T07:52:49.015Z,10.97
2022-10-23T07:55:36.445Z,11.10
2022-10-23T07:58:25.845Z,11.19
2022-10-23T08:01:20.250Z,11.24
2022-10-23T08:04:07.757Z,11.28
2022-10-23T08:06:56.331Z,11.20
2022-10-23T08:09:43.714Z,11.40
2022-10-23T08:12:31.090Z,11.57
2022-10-23T08:15:18.754Z,11.69
2022-10-23T08:18:06.282Z,11.73
2022-10-23T08:20:53.633Z,11.85
2022-10-23T08:23:41.454Z,11.92
2022-10-23T08:26:29.471Z,12.04
2022-10-23T08:29:17.166Z,12.14
2022-10-23T08:32:04.762Z,12.25
2022-10-23T08:34:53.102Z,12.32
2022-10-23T08:37:40.498Z,12.53
2022-10-23T08:40:27.988Z,12.67
2022-10-23T08:43:39.300Z,12.84
2022-10-23T08:46:31.314Z,12.96
2022-10-23T08:49:24.553Z,13.10
2022-10-23T08:52:35.246Z,13.27
2022-10-23T08:55:38.548Z,13.39
2022-10-23T08:58:39.369Z,13.47
2022-10-23T09:01:46.965Z,13.62
2022-10-23T09:04:35.058Z,13.83
2022-10-23T09:07:26.622Z,14.04
2022-10-23T09:10:51.402Z,14.17
2022-10-23T09:14:07.034Z,14.17
2022-10-23T09:17:03.651Z,14.30
2022-10-23T09:19:59.172Z,14.61
2022-10-23T09:22:48.799Z,14.80
2022-10-23T09:25:38.860Z,14.86
2022-10-23T09:28:33.356Z,14.98
2022-10-23T09:31:21.257Z,15.11
2022-10-23T09:34:19.808Z,15.27
2022-10-23T09:37:29.240Z,15.47
2022-10-23T09:40:29.299Z,15.69
2022-10-23T09:43:19.323Z,15.79
2022-10-23T09:46:09.818Z,15.96
2022-10-23T09:49:00.932Z,16.15
2022-10-23T09:52:10.294Z,16.32
2022-10-23T09:55:15.730Z,16.34
2022-10-23T09:58:03.213Z,16.47
2022-10-23T10:00:53.416Z,16.53
2022-10-23T10:03:50.046Z,16.57
2022-10-23T10:06:37.550Z,16.73
2022-10-23T10:09:24.956Z,16.71
2022-10-23T10:12:38.071Z,16.87
2022-10-23T10:15:48.515Z,16.90
2022-10-23T10:18:50.526Z,17.05
2022-10-23T10:22:00.842Z,17.07
2022-10-23T10:24:56.519Z,17.26
2022-10-23T10:28:07.396Z,17.19
2022-10-23T10:31:00.867Z,17.33
2022-10-23T10:34:06.532Z,17.49
2022-10-23T10:37:32.991Z,17.45
2022-10-23T10:40:25.534Z,17.63
2022-10-23T10:43:22.121Z,17.73
2022-10-23T10:46:30.890Z,17.88
2022-10-23T10:49:52.814Z,17.98
2022-10-23T10:52:41.202Z,18.22
2022-10-23T10:55:35.790Z,18.39
2022-10-23T10:58:45.441Z,18.52
2022-10-23T11:01:38.273Z,18.77
2022-10-23T11:04:45.874Z,18.79
2022-10-23T11:07:43.167Z,19.19
2022-10-23T11:10:31.124Z,19.30
2022-10-23T11:13:33.766Z,19.66
2022-10-23T11:16:32.493Z,19.81
2022-10-23T11:19:27.622Z,19.69
2022-10-23T11:22:23.861Z,19.76
2022-10-23T11:25:31.880Z,19.79
2022-10-23T11:28:36.237Z,19.98
2022-10-23T11:32:03.242Z,20.24
2022-10-23T11:35:07.200Z,20.46
2022-10-23T11:38:11.868Z,20.02
2022-10-23T11:41:03.807Z,20.15
2022-10-23T11:43:52.958Z,19.80
2022-10-23T11:46:42.462Z,19.60
2022-10-23T11:49:29.853Z,19.42
2022-10-23T11:52:25.266Z,19.51
2022-10-23T11:55:20.108Z,19.54
2022-10-23T11:58:07.400Z,19.61
2022-10-23T12:00:59.533Z,19.82
2022-10-23T12:03:55.590Z,19.79
2022-10-23T12:06:49.798Z,19.85
2022-10-23T12:09:37.775Z,19.62
2022-10-23T12:12:29.970Z,19.60
2022-10-23T12:15:20.613Z,19.37
2022-10-23T12:18:12.085Z,19.50
2022-10-23T12:21:01.335Z,19.16
2022-10-23T12:24:22.797Z,19.04
2022-10-23T12:27:33.738Z,19.11
2022-10-23T12:33:52.310Z,19.07
2022-10-23T12:37:07.114Z,19.07
2022-10-23T12:39:56.195Z,18.95
2022-10-23T12:42:53.996Z,18.88
2022-10-23T12:45:43.984Z,18.83
2022-10-23T12:48:33.565Z,18.89
2022-10-23T12:51:25.065Z,18.91
2022-10-23T12:54:18.411Z,18.82
2022-10-23T12:57:20.109Z,19.07
2022-10-23T13:00:15.550Z,19.00
2022-10-23T13:03:04.344Z,19.23
2022-10-23T13:05:53.606Z,19.31
2022-10-23T13:08:46.608Z,19.27
2022-10-23T13:11:34.322Z,19.26
2022-10-23T13:14:43.594Z,19.57
2022-10-23T13:17:42.309Z,19.61
2022-10-23T13:20:43.215Z,19.62
2022-10-23T13:23:33.407Z,19.58
2022-10-23T13:26:29.927Z,19.53
2022-10-23T13:29:37.585Z,19.41
2022-10-23T13:32:28.868Z,19.29
2022-10-23T13:35:23.084Z,19.27
2022-10-23T13:38:10.785Z,19.12
2022-10-23T13:40:59.658Z,18.93
2022-10-23T13:43:47.758Z,18.92
2022-10-23T13:46:35.041Z,18.75
2022-10-23T13:49:22.393Z,18.69
2022-10-23T13:52:13.012Z,18.70
2022-10-23T13:55:00.339Z,18.51
2022-10-23T13:57:48.063Z,18.49
2022-10-23T14:00:38.042Z,18.51
2022-10-23T14:03:25.371Z,18.42
2022-10-23T14:06:12.730Z,18.41
2022-10-23T14:09:00.140Z,18.39
2022-10-23T14:11:47.794Z,18.40
2022-10-23T14:14:35.103Z,18.37
2022-10-23T14:17:22.746Z,18.29
2022-10-23T14:20:10.707Z,18.22
2022-10-23T14:22:57.965Z,18.17
2022-10-23T14:25:45.243Z,18.13
2022-10-23T14:28:33.219Z,18.03
2022-10-23T14:31:20.909Z,17.97
2022-10-23T14:34:08.827Z,17.75
2022-10-23T14:37:08.070Z,17.82
2022-10-23T14:39:56.338Z,17.76
2022-10-23T14:42:44.061Z,17.63
2022-10-23T14:45:31.778Z,17.56
2022-10-23T14:48:19.940Z,17.44
2022-10-23T14:51:16.013Z,17.49
2022-10-23T14:54:05.338Z,17.51
2022-10-23T14:56:52.610Z,17.40
2022-10-23T14:59:39.994Z,17.42
2022-10-23T15:02:27.386Z,17.32
2022-10-23T15:05:15.017Z,17.32
2022-10-23T15:08:02.290Z,17.30
2022-10-23T15:10:49.981Z,17.18
2022-10-23T15:13:37.595Z,17.16
2022-10-23T15:16:24.998Z,17.16
2022-10-23T15:19:18.118Z,17.16
2022-10-23T15:22:06.314Z,17.11
2022-10-23T15:24:57.092Z,17.12
2022-10-23T15:27:44.687Z,17.16
2022-10-23T15:30:33.085Z,17.14
2022-10-23T15:33:22.517Z,17.06
2022-10-23T15:36:09.808Z,17.05
2022-10-23T15:38:57.936Z,17.06
2022-10-23T15:41:45.734Z,17.03
2022-10-23T15:44:34.190Z,16.90
2022-10-23T15:47:21.577Z,16.85
2022-10-23T15:50:09.224Z,16.78
2022-10-23T15:52:56.585Z,16.73
2022-10-23T15:55:43.890Z,16.67
2022-10-23T15:58:31.212Z,16.61
2022-10-23T16:01:18.962Z,16.54
2022-10-23T16:04:06.522Z,16.50
2022-10-23T16:06:53.857Z,16.38
2022-10-23T16:09:41.759Z,16.33
2022-10-23T16:12:29.207Z,16.28
2022-10-23T16:15:16.576Z,16.26
2022-10-23T16:18:04.676Z,16.22
2022-10-23T16:20:55.094Z,16.23
2022-10-23T16:23:42.543Z,16.28
2022-10-23T16:26:30.707Z,16.26
2022-10-23T16:29:18.122Z,16.21
2022-10-23T16:32:05.677Z,16.17
2022-10-23T16:34:52.967Z,16.11
2022-10-23T16:37:40.575Z,16.13
2022-10-23T16:40:27.926Z,16.08
2022-10-23T16:43:15.301Z,16.03
2022-10-23T16:46:14.697Z,15.91
2022-10-23T16:49:06.113Z,15.95
2022-10-23T16:51:53.955Z,15.94
2022-10-23T16:54:43.229Z,15.94
2022-10-23T16:57:30.830Z,15.88
2022-10-23T17:00:21.900Z,15.91
2022-10-23T17:03:10.893Z,15.86
2022-10-23T17:06:04.151Z,15.88
2022-10-23T17:08:55.277Z,15.87
2022-10-23T17:11:44.439Z,15.89
2022-10-23T17:14:32.877Z,15.89
2022-10-23T17:17:20.620Z,15.85
2022-10-23T17:20:08.490Z,15.79
2022-10-23T17:22:56.067Z,15.81
2022-10-23T17:25:43.501Z,15.76
2022-10-23T17:28:32.099Z,15.74
2022-10-23T17:31:25.351Z,15.73
2022-10-23T17:34:15.459Z,15.72
2022-10-23T17:37:03.260Z,15.70
2022-10-23T17:39:51.020Z,15.73
2022-10-23T17:42:39.799Z,15.72
2022-10-23T17:45:27.147Z,15.62
2022-10-23T17:48:17.109Z,15.64
2022-10-23T17:51:12.391Z,15.63
2022-10-23T17:54:01.990Z,15.68
2022-10-23T17:56:49.410Z,15.69
2022-10-23T17:59:38.964Z,15.61
2022-10-23T18:02:26.910Z,15.61
2022-10-23T18:05:14.626Z,15.60
2022-10-23T18:08:05.185Z,15.58
2022-10-23T18:10:52.498Z,15.57
2022-10-23T18:13:39.853Z,15.59
2022-10-23T18:16:27.664Z,15.50
2022-10-23T18:19:18.190Z,15.49
2022-10-23T18:22:05.760Z,15.44
2022-10-23T18:24:53.181Z,15.45
2022-10-23T18:27:41.482Z,15.47
2022-10-23T18:30:28.957Z,15.43
2022-10-23T18:33:16.873Z,15.46
2022-10-23T18:36:12.500Z,15.38
2022-10-23T18:38:59.855Z,15.40
2022-10-23T18:41:47.211Z,15.33
2022-10-23T18:44:34.853Z,15.30
2022-10-23T18:47:22.124Z,15.30
2022-10-23T18:50:09.921Z,15.31
2022-10-23T18:52:57.648Z,15.34
2022-10-23T18:55:46.748Z,15.38
2022-10-23T18:58:34.417Z,15.31
2022-10-23T19:01:22.667Z,15.30
2022-10-23T19:04:15.929Z,15.25
2022-10-23T19:07:03.518Z,15.21
2022-10-23T19:09:51.214Z,15.18
2022-10-23T19:12:38.529Z,15.20
2022-10-23T19:15:25.998Z,15.12
2022-10-23T19:18:13.605Z,15.20
2022-10-23T19:21:01.394Z,15.20
2022-10-23T19:23:49.930Z,15.20
2022-10-23T19:26:38.751Z,15.25
2022-10-23T19:29:26.775Z,15.21
2022-10-23T19:32:15.080Z,15.18
2022-10-23T19:35:03.852Z,15.16
2022-10-23T19:37:51.168Z,15.12
2022-10-23T19:40:38.635Z,15.12
2022-10-23T19:43:26.259Z,15.11
2022-10-23T19:46:13.742Z,15.16
2022-10-23T19:49:01.107Z,15.10
2022-10-23T19:51:51.199Z,15.00
2022-10-23T19:54:41.284Z,15.04
2022-10-23T19:57:30.489Z,15.03
2022-10-23T20:00:18.533Z,15.08
2022-10-23T20:03:06.111Z,14.97
2022-10-23T20:05:53.455Z,15.05
2022-10-23T20:08:41.398Z,14.98
2022-10-23T20:11:31.296Z,15.07
2022-10-23T20:14:20.041Z,15.00
2022-10-23T20:17:07.380Z,14.97
2022-10-23T20:19:54.859Z,14.96
2022-10-23T20:22:44.111Z,15.00
2022-10-23T20:25:31.575Z,15.01
2022-10-23T20:28:19.467Z,15.01
2022-10-23T20:31:11.346Z,15.02
2022-10-23T20:33:59.128Z,15.08
2022-10-23T20:36:49.097Z,15.12
2022-10-23T20:39:36.760Z,15.11
2022-10-23T20:42:24.091Z,15.10
2022-10-23T20:45:11.384Z,15.09
2022-10-23T20:47:58.728Z,15.05
2022-10-23T20:50:46.071Z,15.05
2022-10-23T20:53:38.502Z,15.12
2022-10-23T20:56:31.066Z,15.09
2022-10-23T20:59:19.247Z,15.12
2022-10-23T21:02:07.118Z,15.20
2022-10-23T21:04:54.548Z,15.24
2022-10-23T21:07:41.866Z,15.26
2022-10-23T21:10:29.266Z,15.30
2022-10-23T21:13:16.992Z,15.31
2022-10-23T21:16:24.837Z,15.36
2022-10-23T21:19:16.432Z,15.39
2022-10-23T21:22:03.854Z,15.45
2022-10-23T21:24:51.103Z,15.46
2022-10-23T21:27:38.430Z,15.48
2022-10-23T21:30:25.711Z,15.47
2022-10-23T21:33:14.630Z,15.42
2022-10-23T21:36:14.267Z,15.36
2022-10-23T21:39:03.697Z,15.35
2022-10-23T21:41:50.989Z,15.35
2022-10-23T21:44:38.328Z,15.41
2022-10-23T21:47:25.749Z,15.41
2022-10-23T21:50:13.459Z,15.38
2022-10-23T21:53:00.779Z,15.24
2022-10-23T21:55:48.155Z,15.18
2022-10-23T21:58:36.059Z,15.09
2022-10-23T22:01:23.809Z,15.05
2022-10-23T22:04:17.281Z,14.98
2022-10-23T22:07:05.853Z,15.03
